Aérodrome :
LOGIN :

S'inscrire | Disclaimer

   EN    FR    IT 

 










Légende :    VFR   VFR Marginal   IFR   IFR Intensif   IFR Très Intensif
Visi : 
Plafond : 
>= 8 km
>= 3000ft
5 à 8 km
1000 à 3000 ft
1500m à 5 km
500 à 1000 ft
800 à 1500m
200 à 500 ft
< 800m
< 200 ft
Symboles :   Orages  Brouillard  Fortes neiges  Fortes précipitations  Vent > 20 kt
SIGMETs :   Divers  Orages  Givrage  Turbulence  Onde Orograph.  Cendres Volcan.






- Altitude de l'aérodrome : 29 ft


LIRM - Grazzanise Caserta

DERNIER METAR :
  • 140820Z 24005KT 4000 RA SCT010 BKN015 12/11 Q1008 RMK OVC VIS MIN 4000 WIND THR06 27004KT GRN

METARs EXPIRÉS :
  • 140755Z 02005KT 9999 FEW015 SCT020 BKN040 13/11 Q1008 RMK OVC VIS MIN 9999 WIND THR06 02005KT BLU
  • 140655Z 03004KT 9999 FEW015 SCT025 BKN040 12/10 Q1008 RMK OVC VIS MIN 9999 WIND THR06 02005KT BLU
  • 140555Z 06005KT 9999 SCT025 BKN040 12/11 Q1008

TAF TAF LIRM
Valide du 14 à 09h jusqu'au 14 à 18h UTC


140800Z 1409/1418 06005KT 9999 SCT020 BKN050
TEMPO 1409/1412 RA



MET'MAP, la Météo Aéronautique d'un coup d'oeil ! - Copyright ORBIFLY Décembre 2007 - Disclaimer

ORBIFLY MET'MAP TEAM :

Programmation & Développement : Alexandra Zaïnal
Conception & Développement : Baudouin d'Aumeries
Co-Programmation & Développement : Marc-Olivier Méhu
Soutien technique & logistique : Manuel Goepfert

Contact : metmap@orbifly.com




SOURCES & CREDITS :

   NOAA